createdAt,value
2018-09-14T00:01:22.474Z,64.40
2018-09-14T00:03:50.688Z,64.30
2018-09-14T00:06:18.855Z,64.30
2018-09-14T00:08:47.005Z,64.30
2018-09-14T00:11:15.149Z,64.30
2018-09-14T00:13:43.330Z,64.20
2018-09-14T00:16:11.486Z,64.10
2018-09-14T00:18:39.689Z,64.10
2018-09-14T00:21:07.912Z,64.10
2018-09-14T00:23:36.053Z,64.20
2018-09-14T00:26:04.205Z,64.10
2018-09-14T00:28:32.374Z,64.20
2018-09-14T00:31:00.526Z,64.20
2018-09-14T00:33:28.771Z,64.30
2018-09-14T00:35:56.867Z,64.40
2018-09-14T00:38:25.025Z,64.30
2018-09-14T00:40:53.178Z,64.60
2018-09-14T00:43:21.338Z,64.70
2018-09-14T00:45:49.490Z,64.80
2018-09-14T00:48:17.646Z,64.80
2018-09-14T00:50:45.817Z,64.90
2018-09-14T00:53:14.010Z,65.00
2018-09-14T00:55:42.170Z,65.10
2018-09-14T00:58:10.355Z,65.10
2018-09-14T01:00:38.550Z,65.20
2018-09-14T01:03:06.710Z,65.30
2018-09-14T01:05:34.886Z,65.30
2018-09-14T01:08:03.101Z,65.80
2018-09-14T01:10:31.250Z,65.50
2018-09-14T01:12:59.436Z,65.50
2018-09-14T01:15:27.584Z,65.60
2018-09-14T01:17:55.810Z,65.60
2018-09-14T01:20:23.981Z,65.80
2018-09-14T01:22:52.178Z,65.80
2018-09-14T01:25:20.384Z,65.90
2018-09-14T01:27:48.514Z,65.80
2018-09-14T01:30:16.715Z,65.90
2018-09-14T01:32:44.877Z,66.00
2018-09-14T01:35:18.589Z,66.10
2018-09-14T01:37:46.801Z,66.10
2018-09-14T01:40:15.024Z,66.10
2018-09-14T01:42:43.214Z,66.10
2018-09-14T01:45:11.374Z,66.20
2018-09-14T01:47:39.526Z,66.30
2018-09-14T01:50:07.763Z,66.30
2018-09-14T01:52:36.186Z,66.40
2018-09-14T01:55:04.574Z,66.50
2018-09-14T01:57:32.866Z,66.50
2018-09-14T02:00:01.286Z,66.50
2018-09-14T02:02:29.445Z,66.60
2018-09-14T02:04:57.662Z,66.70
2018-09-14T02:07:25.939Z,66.80
2018-09-14T02:09:54.098Z,66.80
2018-09-14T02:12:22.250Z,66.80
2018-09-14T02:14:50.410Z,66.80
2018-09-14T02:17:18.588Z,67.00
2018-09-14T02:19:46.763Z,67.10
2018-09-14T02:22:14.918Z,67.10
2018-09-14T02:24:43.063Z,67.10
2018-09-14T02:27:11.295Z,68.10
2018-09-14T02:29:39.761Z,67.30
2018-09-14T02:32:07.919Z,67.40
2018-09-14T02:34:36.083Z,67.30
2018-09-14T02:37:04.366Z,67.30
2018-09-14T02:39:32.755Z,67.40
2018-09-14T02:42:00.891Z,67.50
2018-09-14T02:44:29.091Z,67.50
2018-09-14T02:46:57.248Z,67.50
2018-09-14T02:49:25.433Z,67.50
2018-09-14T02:51:53.579Z,67.70
2018-09-14T02:54:21.732Z,67.80
2018-09-14T02:56:50.218Z,67.90
2018-09-14T02:59:18.411Z,67.90
2018-09-14T03:01:46.699Z,67.90
2018-09-14T03:04:14.923Z,68.00
2018-09-14T03:06:43.158Z,68.20
2018-09-14T03:09:11.350Z,68.10
2018-09-14T03:11:39.511Z,68.10
2018-09-14T03:14:07.894Z,68.10
2018-09-14T03:16:36.187Z,68.10
2018-09-14T03:19:04.440Z,68.20
2018-09-14T03:21:32.621Z,68.10
2018-09-14T03:24:00.786Z,68.10
2018-09-14T03:26:28.960Z,68.10
2018-09-14T03:28:57.131Z,68.20
2018-09-14T03:31:25.326Z,68.20
2018-09-14T03:33:53.562Z,68.40
2018-09-14T03:36:21.733Z,68.50
2018-09-14T03:38:49.906Z,68.50
2018-09-14T03:41:18.086Z,68.30
2018-09-14T03:43:46.286Z,68.20
2018-09-14T03:46:14.486Z,68.00
2018-09-14T03:48:42.726Z,67.90
2018-09-14T03:51:11.002Z,68.00
2018-09-14T03:53:39.174Z,68.00
2018-09-14T03:56:07.351Z,68.00
2018-09-14T03:58:35.526Z,67.90
2018-09-14T04:01:03.674Z,68.00
2018-09-14T04:03:31.882Z,68.00
2018-09-14T04:06:00.059Z,68.10
2018-09-14T04:08:28.214Z,68.20
2018-09-14T04:10:56.395Z,68.30
2018-09-14T04:13:24.553Z,68.00
2018-09-14T04:15:52.765Z,68.00
2018-09-14T04:18:20.933Z,68.10
2018-09-14T04:20:49.106Z,68.30
2018-09-14T04:23:17.280Z,68.20
2018-09-14T04:25:45.470Z,68.30
2018-09-14T04:28:13.698Z,68.30
2018-09-14T04:30:41.830Z,68.30
2018-09-14T04:33:10.064Z,68.30
2018-09-14T04:35:38.260Z,68.30
2018-09-14T04:38:06.608Z,68.40
2018-09-14T04:40:35.071Z,68.70
2018-09-14T04:43:03.266Z,69.60
2018-09-14T04:45:31.443Z,68.90
2018-09-14T04:47:59.631Z,68.80
2018-09-14T04:50:27.813Z,68.70
2018-09-14T04:52:55.973Z,69.60
2018-09-14T04:55:24.171Z,68.90
2018-09-14T04:57:52.369Z,68.40
2018-09-14T05:00:20.537Z,68.90
2018-09-14T05:02:48.697Z,69.00
2018-09-14T05:05:16.883Z,68.90
2018-09-14T05:07:45.138Z,69.00
2018-09-14T05:10:13.304Z,69.00
2018-09-14T05:12:41.476Z,69.10
2018-09-14T05:15:09.626Z,69.10
2018-09-14T05:17:37.826Z,69.20
2018-09-14T05:20:06.182Z,69.20
2018-09-14T05:22:34.362Z,69.30
2018-09-14T05:25:02.562Z,69.40
2018-09-14T05:27:30.743Z,69.00
2018-09-14T05:29:58.999Z,69.50
2018-09-14T05:32:27.209Z,69.50
2018-09-14T05:34:55.481Z,69.60
2018-09-14T05:37:23.686Z,69.70
2018-09-14T05:39:51.922Z,69.80
2018-09-14T05:42:20.115Z,70.00
2018-09-14T05:44:48.338Z,70.00
2018-09-14T05:47:16.498Z,70.10
2018-09-14T05:49:44.710Z,70.20
2018-09-14T05:52:12.877Z,70.30
2018-09-14T05:54:41.052Z,70.50
2018-09-14T05:57:09.884Z,70.50
2018-09-14T05:59:38.140Z,70.70
2018-09-14T06:02:06.400Z,71.00
2018-09-14T06:04:34.613Z,71.10
2018-09-14T06:07:02.783Z,71.20
2018-09-14T06:09:30.970Z,71.00
2018-09-14T06:11:59.194Z,71.00
2018-09-14T06:14:27.431Z,71.10
2018-09-14T06:16:55.664Z,71.00
2018-09-14T06:19:23.814Z,71.10
2018-09-14T06:21:52.216Z,71.00
2018-09-14T06:24:20.430Z,71.00
2018-09-14T06:26:48.606Z,71.00
2018-09-14T06:29:16.950Z,71.10
2018-09-14T06:31:45.198Z,71.10
2018-09-14T06:34:13.365Z,71.20
2018-09-14T06:36:41.731Z,71.20
2018-09-14T06:39:11.241Z,71.30
2018-09-14T06:41:39.584Z,71.30
2018-09-14T06:44:08.183Z,71.40
2018-09-14T06:46:36.492Z,71.20
2018-09-14T06:49:05.631Z,71.20
2018-09-14T06:51:34.599Z,71.20
2018-09-14T06:54:02.824Z,71.50
2018-09-14T06:56:31.030Z,71.10
2018-09-14T06:58:59.258Z,70.80
2018-09-14T07:01:27.422Z,70.80
2018-09-14T07:03:55.590Z,71.00
2018-09-14T07:06:23.860Z,71.00
2018-09-14T07:08:52.034Z,71.00
2018-09-14T07:11:20.332Z,70.80
2018-09-14T07:13:49.849Z,70.30
2018-09-14T07:16:18.118Z,70.00
2018-09-14T07:18:47.118Z,69.80
2018-09-14T07:21:15.379Z,69.50
2018-09-14T07:23:43.565Z,69.50
2018-09-14T07:26:11.876Z,69.40
2018-09-14T07:28:40.117Z,69.10
2018-09-14T07:31:08.309Z,68.80
2018-09-14T07:33:36.571Z,68.50
2018-09-14T07:36:04.786Z,68.10
2018-09-14T07:38:33.016Z,67.90
2018-09-14T07:41:01.275Z,67.50
2018-09-14T07:43:29.520Z,67.20
2018-09-14T07:45:57.780Z,66.90
2018-09-14T07:48:26.203Z,66.50
2018-09-14T07:50:54.730Z,66.70
2018-09-14T07:53:23.368Z,66.50
2018-09-14T07:55:51.664Z,66.50
2018-09-14T07:58:19.937Z,66.10
2018-09-14T08:00:48.188Z,65.90
2018-09-14T08:03:16.358Z,65.10
2018-09-14T08:05:44.559Z,64.70
2018-09-14T08:08:12.749Z,64.50
2018-09-14T08:10:40.910Z,64.60
2018-09-14T08:13:09.226Z,64.60
2018-09-14T08:15:37.398Z,64.40
2018-09-14T08:18:05.915Z,64.00
2018-09-14T08:20:34.101Z,63.90
2018-09-14T08:23:02.326Z,63.80
2018-09-14T08:25:30.510Z,63.80
2018-09-14T08:27:58.701Z,63.70
2018-09-14T08:30:26.948Z,63.40
2018-09-14T08:32:55.135Z,63.00
2018-09-14T08:35:23.407Z,63.40
2018-09-14T08:37:51.633Z,63.90
2018-09-14T08:40:19.898Z,63.10
2018-09-14T08:42:48.161Z,62.80
2018-09-14T08:45:16.400Z,62.40
2018-09-14T08:47:44.693Z,62.10
2018-09-14T08:50:12.903Z,62.30
2018-09-14T08:52:41.158Z,62.50
2018-09-14T08:55:09.398Z,62.00
2018-09-14T08:57:37.585Z,61.90
2018-09-14T09:00:05.784Z,62.10
2018-09-14T09:02:33.957Z,62.00
2018-09-14T09:05:02.178Z,62.20
2018-09-14T09:07:30.368Z,61.50
2018-09-14T09:09:58.550Z,61.60
2018-09-14T09:12:26.858Z,61.40
2018-09-14T09:14:55.077Z,61.10
2018-09-14T09:17:23.286Z,61.60
2018-09-14T09:19:51.501Z,62.10
2018-09-14T09:22:19.713Z,61.60
2018-09-14T09:24:47.947Z,61.40
2018-09-14T09:27:16.213Z,61.40
2018-09-14T09:29:44.383Z,61.30
2018-09-14T09:32:12.551Z,61.50
2018-09-14T09:34:40.751Z,61.40
2018-09-14T09:37:08.996Z,61.00
2018-09-14T09:39:37.195Z,60.50
2018-09-14T09:42:05.393Z,60.70
2018-09-14T09:44:33.611Z,60.00
2018-09-14T09:47:02.122Z,60.20
2018-09-14T09:49:30.332Z,60.50
2018-09-14T09:51:58.679Z,60.30
2018-09-14T09:54:26.901Z,60.00
2018-09-14T09:56:55.053Z,60.00
2018-09-14T09:59:23.251Z,59.90
2018-09-14T10:01:56.815Z,59.80
2018-09-14T10:04:30.423Z,59.10
2018-09-14T10:06:58.634Z,59.10
2018-09-14T10:09:26.795Z,59.10
2018-09-14T10:11:55.021Z,59.30
2018-09-14T10:14:23.355Z,59.40
2018-09-14T10:16:51.567Z,59.50
2018-09-14T10:19:19.755Z,59.20
2018-09-14T10:21:48.020Z,58.70
2018-09-14T10:24:16.123Z,58.50
2018-09-14T10:26:44.322Z,57.20
2018-09-14T10:29:12.463Z,56.30
2018-09-14T10:31:40.639Z,56.00
2018-09-14T10:34:08.830Z,55.70
2018-09-14T10:36:36.987Z,55.10
2018-09-14T10:39:08.218Z,54.20
2018-09-14T10:41:36.374Z,54.40
2018-09-14T10:44:04.530Z,54.20
2018-09-14T10:46:32.678Z,54.20
2018-09-14T10:49:00.839Z,54.40
2018-09-14T10:51:28.991Z,54.00
2018-09-14T10:53:57.167Z,54.40
2018-09-14T10:56:25.433Z,53.30
2018-09-14T10:58:53.593Z,52.70
2018-09-14T11:01:21.734Z,52.60
2018-09-14T11:03:50.830Z,50.90
2018-09-14T11:06:19.042Z,50.80
2018-09-14T11:08:47.306Z,50.50
2018-09-14T11:11:15.465Z,50.80
2018-09-14T11:13:43.723Z,50.60
2018-09-14T11:16:11.998Z,49.90
2018-09-14T11:18:40.175Z,49.70
2018-09-14T11:21:08.311Z,50.00
2018-09-14T11:23:36.462Z,49.10
2018-09-14T11:26:04.645Z,48.50
2018-09-14T11:28:32.809Z,48.70
2018-09-14T11:31:01.027Z,48.10
2018-09-14T11:33:29.174Z,47.40
2018-09-14T11:35:57.330Z,46.80
2018-09-14T11:38:25.536Z,46.70
2018-09-14T11:40:53.682Z,46.50
2018-09-14T11:43:21.830Z,46.10
2018-09-14T11:45:50.037Z,45.70
2018-09-14T11:48:18.162Z,45.60
2018-09-14T11:50:46.347Z,45.90
2018-09-14T11:53:14.509Z,46.10
2018-09-14T11:55:42.683Z,46.00
2018-09-14T11:58:10.931Z,45.60
2018-09-14T12:00:39.050Z,45.20
2018-09-14T12:03:07.312Z,45.10
2018-09-14T12:05:35.516Z,45.40
2018-09-14T12:08:03.712Z,45.40
2018-09-14T12:10:31.989Z,45.40
2018-09-14T12:13:00.101Z,45.40
2018-09-14T12:15:28.298Z,45.60
2018-09-14T12:17:56.467Z,45.60
2018-09-14T12:20:24.650Z,45.80
2018-09-14T12:22:52.850Z,45.70
2018-09-14T12:25:21.026Z,45.60
2018-09-14T12:27:49.271Z,45.80
2018-09-14T12:30:18.116Z,46.40
2018-09-14T12:32:46.333Z,45.50
2018-09-14T12:35:14.510Z,45.60
2018-09-14T12:37:42.697Z,45.60
2018-09-14T12:40:10.877Z,45.70
2018-09-14T12:42:39.237Z,46.50
2018-09-14T12:45:07.390Z,45.90
2018-09-14T12:47:35.560Z,46.10
2018-09-14T12:50:03.783Z,46.10
2018-09-14T12:52:31.973Z,46.20
2018-09-14T12:55:00.149Z,46.10
2018-09-14T12:57:28.438Z,45.80
2018-09-14T12:59:56.672Z,45.50
2018-09-14T13:02:24.899Z,45.20
2018-09-14T13:04:53.071Z,45.20
2018-09-14T13:07:21.623Z,45.20
2018-09-14T13:09:49.774Z,45.40
2018-09-14T13:12:17.957Z,45.10
2018-09-14T13:14:46.196Z,45.10
2018-09-14T13:17:14.405Z,45.20
2018-09-14T13:19:42.558Z,45.30
2018-09-14T13:22:10.988Z,45.30
2018-09-14T13:24:39.135Z,45.10
2018-09-14T13:27:07.342Z,45.00
2018-09-14T13:29:35.930Z,44.80
2018-09-14T13:32:04.098Z,44.90
2018-09-14T13:34:32.293Z,45.00
2018-09-14T13:37:00.498Z,45.30
2018-09-14T13:39:28.711Z,45.60
2018-09-14T13:41:56.937Z,45.10
2018-09-14T13:44:25.119Z,45.00
2018-09-14T13:46:53.291Z,44.50
2018-09-14T13:49:21.466Z,44.40
2018-09-14T13:51:49.629Z,44.40
2018-09-14T13:54:17.821Z,44.20
2018-09-14T13:56:46.003Z,44.10
2018-09-14T13:59:14.195Z,44.10
2018-09-14T14:01:42.342Z,44.10
2018-09-14T14:04:10.522Z,44.20
2018-09-14T14:06:38.678Z,44.10
2018-09-14T14:09:09.173Z,44.10
2018-09-14T14:11:37.336Z,43.80
2018-09-14T14:14:05.503Z,44.10
2018-09-14T14:16:33.658Z,44.40
2018-09-14T14:19:01.867Z,44.10
2018-09-14T14:21:30.034Z,43.60
2018-09-14T14:23:58.189Z,43.30
2018-09-14T14:26:26.362Z,43.20
2018-09-14T14:28:54.534Z,43.30
2018-09-14T14:31:22.721Z,43.00
2018-09-14T14:33:50.878Z,43.10
2018-09-14T14:36:19.049Z,43.70
2018-09-14T14:38:47.219Z,43.00
2018-09-14T14:41:15.445Z,43.00
2018-09-14T14:43:43.598Z,43.10
2018-09-14T14:46:11.779Z,43.00
2018-09-14T14:48:39.951Z,43.00
2018-09-14T14:51:08.114Z,43.00
2018-09-14T14:53:36.270Z,42.80
2018-09-14T14:56:04.490Z,42.70
2018-09-14T14:58:32.662Z,42.80
2018-09-14T15:01:00.898Z,42.80
2018-09-14T15:03:29.086Z,42.80
2018-09-14T15:05:57.322Z,43.50
2018-09-14T15:08:25.586Z,42.90
2018-09-14T15:10:53.742Z,43.00
2018-09-14T15:13:21.922Z,43.30
2018-09-14T15:15:50.080Z,43.40
2018-09-14T15:18:18.241Z,42.90
2018-09-14T15:20:46.486Z,42.90
2018-09-14T15:23:14.682Z,42.70
2018-09-14T15:25:42.857Z,42.80
2018-09-14T15:28:11.026Z,42.90
2018-09-14T15:30:39.179Z,42.70
2018-09-14T15:33:07.353Z,43.20
2018-09-14T15:35:36.182Z,43.20
2018-09-14T15:38:04.454Z,43.40
2018-09-14T15:40:32.679Z,43.30
2018-09-14T15:43:00.910Z,43.10
2018-09-14T15:45:29.062Z,42.80
2018-09-14T15:47:57.366Z,42.70
2018-09-14T15:50:25.576Z,42.50
2018-09-14T15:52:53.788Z,42.30
2018-09-14T15:55:22.019Z,42.30
2018-09-14T15:57:50.275Z,42.30
2018-09-14T16:00:20.866Z,42.40
2018-09-14T16:02:50.131Z,42.50
2018-09-14T16:05:18.280Z,42.70
2018-09-14T16:07:46.421Z,43.00
2018-09-14T16:10:14.579Z,42.80
2018-09-14T16:12:42.759Z,42.60
2018-09-14T16:15:11.080Z,42.50
2018-09-14T16:17:39.228Z,41.70
2018-09-14T16:20:07.582Z,42.30
2018-09-14T16:22:36.391Z,42.30
2018-09-14T16:25:04.854Z,42.30
2018-09-14T16:27:32.990Z,42.30
2018-09-14T16:30:01.143Z,42.20
2018-09-14T16:32:29.312Z,42.30
2018-09-14T16:34:57.492Z,42.60
2018-09-14T16:37:25.654Z,42.50
2018-09-14T16:39:53.831Z,42.30
2018-09-14T16:42:21.974Z,42.10
2018-09-14T16:44:50.156Z,42.00
2018-09-14T16:47:18.324Z,42.00
2018-09-14T16:49:46.470Z,42.00
2018-09-14T16:52:14.610Z,42.10
2018-09-14T16:54:42.783Z,42.00
2018-09-14T16:57:11.075Z,42.00
2018-09-14T16:59:39.250Z,41.70
2018-09-14T17:02:07.410Z,41.50
2018-09-14T17:04:35.578Z,41.40
2018-09-14T17:07:03.788Z,41.30
2018-09-14T17:09:32.073Z,41.50
2018-09-14T17:12:00.218Z,41.60
2018-09-14T17:14:28.435Z,41.50
2018-09-14T17:16:56.624Z,41.40
2018-09-14T17:19:24.919Z,41.50
2018-09-14T17:21:53.103Z,41.30
2018-09-14T17:24:21.278Z,41.20
2018-09-14T17:26:49.454Z,41.30
2018-09-14T17:29:17.689Z,41.60
2018-09-14T17:31:45.853Z,41.70
2018-09-14T17:34:14.042Z,41.80
2018-09-14T17:36:42.217Z,41.80
2018-09-14T17:39:10.991Z,41.80
2018-09-14T17:41:40.350Z,41.60
2018-09-14T17:44:08.733Z,41.70
2018-09-14T17:46:37.058Z,41.60
2018-09-14T17:49:05.315Z,41.60
2018-09-14T17:51:33.570Z,41.60
2018-09-14T17:54:01.806Z,41.70
2018-09-14T17:56:30.045Z,41.80
2018-09-14T17:58:58.271Z,41.90
2018-09-14T18:01:26.542Z,42.10
2018-09-14T18:03:54.678Z,42.20
2018-09-14T18:06:22.830Z,42.40
2018-09-14T18:08:51.061Z,42.60
2018-09-14T18:11:19.344Z,42.60
2018-09-14T18:13:47.673Z,42.80
2018-09-14T18:16:15.902Z,42.90
2018-09-14T18:18:44.282Z,43.00
2018-09-14T18:21:12.714Z,43.10
2018-09-14T18:23:40.892Z,43.20
2018-09-14T18:26:09.342Z,43.40
2018-09-14T18:28:37.566Z,43.60
2018-09-14T18:31:05.878Z,43.70
2018-09-14T18:33:34.034Z,44.10
2018-09-14T18:36:02.475Z,44.10
2018-09-14T18:38:30.657Z,44.20
2018-09-14T18:40:58.843Z,44.30
2018-09-14T18:43:27.011Z,44.60
2018-09-14T18:45:55.290Z,44.60
2018-09-14T18:48:23.527Z,44.80
2018-09-14T18:50:52.006Z,45.00
2018-09-14T18:53:20.203Z,45.20
2018-09-14T18:55:48.363Z,45.60
2018-09-14T18:58:16.548Z,45.70
2018-09-14T19:00:44.734Z,45.90
2018-09-14T19:03:12.914Z,46.00
2018-09-14T19:05:41.071Z,45.90
2018-09-14T19:08:09.281Z,45.90
2018-09-14T19:10:37.438Z,45.90
2018-09-14T19:13:05.626Z,46.00
2018-09-14T19:15:33.906Z,46.10
2018-09-14T19:18:02.138Z,46.20
2018-09-14T19:20:30.303Z,46.40
2018-09-14T19:22:58.702Z,46.60
2018-09-14T19:25:26.866Z,46.60
2018-09-14T19:27:55.122Z,46.80
2018-09-14T19:30:23.285Z,46.90
2018-09-14T19:32:51.627Z,46.90
2018-09-14T19:35:19.803Z,47.10
2018-09-14T19:37:48.006Z,47.20
2018-09-14T19:40:16.164Z,47.40
2018-09-14T19:42:44.317Z,47.50
2018-09-14T19:45:12.479Z,47.60
2018-09-14T19:47:40.626Z,47.80
2018-09-14T19:50:08.824Z,47.90
2018-09-14T19:52:36.944Z,48.10
2018-09-14T19:55:05.116Z,48.10
2018-09-14T19:57:33.339Z,48.30
2018-09-14T20:00:01.520Z,48.30
2018-09-14T20:02:29.687Z,48.60
2018-09-14T20:04:57.945Z,48.90
2018-09-14T20:07:26.091Z,49.00
2018-09-14T20:09:54.243Z,49.90
2018-09-14T20:12:22.402Z,49.50
2018-09-14T20:14:51.309Z,49.80
2018-09-14T20:17:19.481Z,50.00
2018-09-14T20:19:47.619Z,50.20
2018-09-14T20:22:15.751Z,50.40
2018-09-14T20:24:43.946Z,50.50
2018-09-14T20:27:12.142Z,50.70
2018-09-14T20:29:40.376Z,50.80
2018-09-14T20:32:08.538Z,51.00
2018-09-14T20:34:36.704Z,51.20
2018-09-14T20:37:04.839Z,51.30
2018-09-14T20:39:33.005Z,51.50
2018-09-14T20:42:01.166Z,51.60
2018-09-14T20:44:29.401Z,51.90
2018-09-14T20:46:57.825Z,52.10
2018-09-14T20:49:25.977Z,52.20
2018-09-14T20:51:54.177Z,52.30
2018-09-14T20:54:22.339Z,52.40
2018-09-14T20:56:50.567Z,52.40
2018-09-14T20:59:18.754Z,52.50
2018-09-14T21:01:47.311Z,52.40
2018-09-14T21:04:15.554Z,52.50
2018-09-14T21:06:43.635Z,52.60
2018-09-14T21:09:11.770Z,52.80
2018-09-14T21:11:39.921Z,52.80
2018-09-14T21:14:08.106Z,53.00
2018-09-14T21:16:36.276Z,53.00
2018-09-14T21:19:04.874Z,53.10
2018-09-14T21:21:33.030Z,53.10
2018-09-14T21:24:01.211Z,53.20
2018-09-14T21:26:29.374Z,53.20
2018-09-14T21:28:57.718Z,53.30
2018-09-14T21:31:25.884Z,53.20
2018-09-14T21:33:54.026Z,53.30
2018-09-14T21:36:22.290Z,53.40
2018-09-14T21:38:50.454Z,53.30
2018-09-14T21:41:18.603Z,53.20
2018-09-14T21:43:47.022Z,53.20
2018-09-14T21:46:15.160Z,53.10
2018-09-14T21:48:43.306Z,53.20
2018-09-14T21:51:11.435Z,53.00
2018-09-14T21:53:39.622Z,53.00
2018-09-14T21:56:07.772Z,52.80
2018-09-14T21:58:35.947Z,52.70
2018-09-14T22:01:10.349Z,52.80
2018-09-14T22:03:38.508Z,52.90
2018-09-14T22:06:07.018Z,52.70
2018-09-14T22:08:35.201Z,52.60
2018-09-14T22:11:03.370Z,52.60
2018-09-14T22:13:31.583Z,53.40
2018-09-14T22:15:59.738Z,52.70
2018-09-14T22:18:27.910Z,52.70
2018-09-14T22:20:56.072Z,52.80
2018-09-14T22:23:24.222Z,52.70
2018-09-14T22:25:52.422Z,52.70
2018-09-14T22:28:20.908Z,52.70
2018-09-14T22:30:49.102Z,52.70
2018-09-14T22:33:17.262Z,52.70
2018-09-14T22:35:45.524Z,52.70
2018-09-14T22:38:13.702Z,52.70
2018-09-14T22:40:41.850Z,52.70
2018-09-14T22:43:10.046Z,52.80
2018-09-14T22:45:38.214Z,52.80
2018-09-14T22:48:06.579Z,52.80
2018-09-14T22:50:38.160Z,52.90
2018-09-14T22:53:06.466Z,53.00
2018-09-14T22:55:34.631Z,53.10
2018-09-14T22:58:02.834Z,53.10
2018-09-14T23:00:36.534Z,53.20
2018-09-14T23:03:04.795Z,53.20
2018-09-14T23:05:33.170Z,53.30
2018-09-14T23:08:01.354Z,53.30
2018-09-14T23:10:29.526Z,53.20
2018-09-14T23:12:57.695Z,53.40
2018-09-14T23:15:25.842Z,53.60
2018-09-14T23:17:54.087Z,53.60
2018-09-14T23:20:22.220Z,53.60
2018-09-14T23:22:50.382Z,53.60
2018-09-14T23:25:18.550Z,53.60
2018-09-14T23:27:46.723Z,53.10
2018-09-14T23:30:14.902Z,53.90
2018-09-14T23:32:43.138Z,54.00
2018-09-14T23:35:11.383Z,54.10
2018-09-14T23:37:39.526Z,54.10
2018-09-14T23:40:08.518Z,54.20
2018-09-14T23:42:36.658Z,54.30
2018-09-14T23:45:04.926Z,54.50
2018-09-14T23:47:33.088Z,54.40
2018-09-14T23:50:01.306Z,54.50
2018-09-14T23:52:29.529Z,54.60
2018-09-14T23:54:57.711Z,54.70
2018-09-14T23:57:25.865Z,54.80
2018-09-14T23:59:54.014Z,54.90
